createdAt,value
2019-04-21T00:00:31.869Z,60.90
2019-04-21T00:03:07.356Z,61.10
2019-04-21T00:05:53.301Z,61.00
2019-04-21T00:08:32.758Z,61.20
2019-04-21T00:10:59.365Z,60.90
2019-04-21T00:13:17.855Z,61.00
2019-04-21T00:15:46.373Z,60.90
2019-04-21T00:18:21.218Z,60.90
2019-04-21T00:20:55.201Z,60.80
2019-04-21T00:23:47.334Z,60.70
2019-04-21T00:26:03.938Z,60.60
2019-04-21T00:28:53.412Z,60.80
2019-04-21T00:31:12.633Z,60.50
2019-04-21T00:33:32.476Z,60.60
2019-04-21T00:36:05.040Z,60.90
2019-04-21T00:39:03.031Z,60.70
2019-04-21T00:41:24.946Z,60.80
2019-04-21T00:43:47.239Z,61.40
2019-04-21T00:46:10.822Z,61.20
2019-04-21T00:48:53.549Z,60.90
2019-04-21T00:51:33.239Z,60.80
2019-04-21T00:54:13.524Z,60.90
2019-04-21T00:56:34.439Z,60.80
2019-04-21T00:59:06.795Z,60.90
2019-04-21T01:01:39.380Z,60.80
2019-04-21T01:04:11.321Z,60.80
2019-04-21T01:06:43.498Z,60.70
2019-04-21T01:09:08.409Z,61.00
2019-04-21T01:11:47.473Z,60.90
2019-04-21T01:14:12.008Z,61.10
2019-04-21T01:16:49.804Z,61.00
2019-04-21T01:19:13.912Z,61.30
2019-04-21T01:21:23.697Z,61.40
2019-04-21T01:23:56.236Z,61.40
2019-04-21T01:26:32.535Z,61.30
2019-04-21T01:29:13.231Z,61.80
2019-04-21T01:31:42.244Z,62.20
2019-04-21T01:34:14.972Z,62.50
2019-04-21T01:36:46.156Z,62.50
2019-04-21T01:39:20.179Z,62.60
2019-04-21T01:41:55.408Z,62.80
2019-04-21T01:44:34.349Z,63.00
2019-04-21T01:46:51.985Z,63.40
2019-04-21T01:49:16.069Z,63.40
2019-04-21T01:52:22.217Z,63.50
2019-04-21T01:54:55.538Z,63.10
2019-04-21T01:57:31.709Z,63.50
2019-04-21T01:59:55.281Z,63.40
2019-04-21T02:02:37.919Z,62.60
2019-04-21T02:05:10.516Z,62.80
2019-04-21T02:07:40.559Z,62.50
2019-04-21T02:10:11.206Z,62.50
2019-04-21T02:12:41.058Z,62.70
2019-04-21T02:15:21.897Z,63.10
2019-04-21T02:17:43.433Z,63.30
2019-04-21T02:20:02.745Z,63.40
2019-04-21T02:23:00.429Z,63.30
2019-04-21T02:25:35.286Z,63.60
2019-04-21T02:27:51.021Z,63.60
2019-04-21T02:30:29.702Z,64.30
2019-04-21T02:33:04.009Z,64.10
2019-04-21T02:35:40.272Z,64.40
2019-04-21T02:38:01.284Z,65.40
2019-04-21T02:40:38.848Z,65.50
2019-04-21T02:43:07.096Z,66.30
2019-04-21T02:45:34.238Z,67.30
2019-04-21T02:48:17.171Z,67.30
2019-04-21T02:50:45.130Z,66.90
2019-04-21T02:53:16.419Z,66.70
2019-04-21T02:55:39.693Z,68.30
2019-04-21T02:58:16.032Z,68.30
2019-04-21T03:00:54.973Z,68.20
2019-04-21T03:03:29.344Z,68.60
2019-04-21T03:08:44.308Z,69.00
2019-04-21T03:11:09.303Z,69.30
2019-04-21T03:13:42.065Z,69.50
2019-04-21T03:23:46.834Z,71.40
2019-04-21T03:26:20.358Z,71.90
2019-04-21T03:28:45.881Z,72.30
2019-04-21T03:31:57.573Z,72.60
2019-04-21T03:36:39.867Z,73.20
2019-04-21T03:38:40.559Z,73.40
2019-04-21T03:41:22.217Z,73.00
2019-04-21T03:43:50.283Z,72.90
2019-04-21T03:46:27.402Z,73.30
2019-04-21T03:48:51.718Z,73.30
2019-04-21T03:51:43.930Z,73.20
2019-04-21T03:53:54.290Z,73.30
2019-04-21T03:56:48.594Z,73.40
2019-04-21T03:58:59.848Z,73.40
2019-04-21T04:01:32.779Z,73.50
2019-04-21T04:04:24.499Z,73.70
2019-04-21T04:09:43.414Z,74.00
2019-04-21T04:14:23.390Z,74.50
2019-04-21T04:17:04.739Z,74.60
2019-04-21T04:19:29.439Z,74.70
2019-04-21T04:22:09.217Z,74.90
2019-04-21T04:24:33.973Z,75.20
2019-04-21T04:26:58.906Z,75.20
2019-04-21T04:29:26.279Z,74.90
2019-04-21T04:32:14.610Z,74.90
2019-04-21T04:34:49.823Z,75.10
2019-04-21T04:49:49.980Z,75.50
2019-04-21T04:52:31.128Z,75.60
2019-04-21T05:02:37.610Z,75.70
2019-04-21T05:04:54.906Z,74.80
2019-04-21T05:07:25.153Z,74.60
2019-04-21T05:09:59.840Z,74.70
2019-04-21T05:12:15.979Z,73.70
2019-04-21T05:14:54.732Z,73.20
2019-04-21T05:17:28.714Z,73.30
2019-04-21T05:20:10.405Z,73.70
2019-04-21T05:22:22.220Z,73.00
2019-04-21T05:24:44.047Z,71.50
2019-04-21T05:27:29.588Z,70.70
2019-04-21T05:30:17.300Z,70.90
2019-04-21T05:33:00.054Z,70.90
2019-04-21T05:35:45.281Z,70.90
2019-04-21T05:38:33.373Z,71.60
2019-04-21T05:40:55.187Z,71.20
2019-04-21T05:43:39.196Z,70.70
2019-04-21T05:46:04.714Z,68.80
2019-04-21T05:48:43.709Z,69.50
2019-04-21T05:51:08.026Z,67.90
2019-04-21T05:53:42.700Z,69.10
2019-04-21T05:56:16.030Z,67.90
2019-04-21T05:58:46.260Z,67.60
2019-04-21T06:01:23.832Z,68.20
2019-04-21T06:03:49.255Z,67.60
2019-04-21T06:06:28.421Z,66.50
2019-04-21T06:08:49.619Z,65.70
2019-04-21T06:11:36.224Z,64.90
2019-04-21T06:16:32.782Z,62.10
2019-04-21T06:19:01.024Z,60.70
2019-04-21T06:21:27.962Z,60.50
2019-04-21T06:23:57.809Z,59.30
2019-04-21T06:26:51.618Z,59.00
2019-04-21T06:28:56.877Z,59.00
2019-04-21T06:34:03.545Z,58.20
2019-04-21T06:36:42.299Z,57.50
2019-04-21T06:41:53.198Z,57.50
2019-04-21T06:44:13.003Z,57.50
2019-04-21T06:46:45.900Z,57.10
2019-04-21T06:49:08.064Z,57.30
2019-04-21T06:51:43.647Z,57.30
2019-04-21T06:54:22.021Z,57.40
2019-04-21T06:56:48.354Z,57.50
2019-04-21T06:59:15.108Z,57.20
2019-04-21T07:01:52.726Z,57.00
2019-04-21T07:11:52.639Z,55.60
2019-04-21T07:16:59.538Z,55.20
2019-04-21T07:21:55.619Z,54.70
2019-04-21T07:24:32.041Z,53.80
2019-04-21T07:27:03.492Z,53.90
2019-04-21T07:29:34.848Z,53.40
2019-04-21T07:32:04.376Z,52.20
2019-04-21T07:34:38.445Z,51.60
2019-04-21T07:37:17.374Z,51.00
2019-04-21T07:39:35.313Z,50.40
2019-04-21T07:42:04.884Z,50.90
2019-04-21T07:44:32.992Z,50.80
2019-04-21T07:47:03.136Z,50.80
2019-04-21T07:49:47.902Z,50.70
2019-04-21T07:52:28.633Z,50.90
2019-04-21T07:55:07.743Z,50.50
2019-04-21T07:57:28.077Z,50.60
2019-04-21T08:02:29.377Z,49.40
2019-04-21T08:05:07.535Z,49.50
2019-04-21T08:07:42.130Z,48.90
2019-04-21T08:10:07.833Z,48.80
2019-04-21T08:12:33.709Z,48.90
2019-04-21T08:15:15.720Z,49.30
2019-04-21T08:17:36.723Z,49.20
2019-04-21T08:20:11.350Z,49.10
2019-04-21T08:25:09.224Z,47.80
2019-04-21T08:27:47.711Z,48.90
2019-04-21T08:30:14.339Z,48.30
2019-04-21T08:32:51.765Z,47.30
2019-04-21T08:37:46.369Z,45.40
2019-04-21T08:42:52.094Z,45.20
2019-04-21T08:45:25.833Z,45.20
2019-04-21T08:47:53.168Z,46.00
2019-04-21T08:50:22.650Z,44.20
2019-04-21T08:52:58.367Z,44.10
2019-04-21T08:55:39.717Z,43.30
2019-04-21T08:58:35.445Z,42.90
2019-04-21T09:01:00.899Z,43.60
2019-04-21T09:03:49.574Z,42.30
2019-04-21T09:06:22.228Z,43.30
2019-04-21T09:08:52.279Z,42.40
2019-04-21T09:11:16.232Z,41.60
2019-04-21T09:13:48.911Z,41.30
2019-04-21T09:16:15.384Z,42.50
2019-04-21T09:18:48.715Z,42.30
2019-04-21T09:21:26.911Z,42.50
2019-04-21T09:23:50.936Z,42.30
2019-04-21T09:26:26.274Z,42.90
2019-04-21T09:28:48.346Z,42.80
2019-04-21T09:31:08.997Z,43.30
2019-04-21T09:33:46.725Z,42.70
2019-04-21T09:36:15.471Z,42.60
2019-04-21T09:38:43.630Z,43.80
2019-04-21T09:41:16.226Z,42.90
2019-04-21T09:43:50.130Z,43.50
2019-04-21T09:46:16.038Z,42.60
2019-04-21T09:48:53.619Z,43.10
2019-04-21T09:51:17.799Z,41.00
2019-04-21T09:53:54.606Z,41.70
2019-04-21T09:56:30.269Z,41.90
2019-04-21T09:58:52.198Z,40.20
2019-04-21T10:01:28.681Z,42.20
2019-04-21T10:03:56.450Z,42.20
2019-04-21T10:06:23.785Z,41.80
2019-04-21T10:09:00.938Z,41.30
2019-04-21T10:11:24.622Z,40.50
2019-04-21T10:13:55.079Z,40.80
2019-04-21T10:16:42.839Z,41.10
2019-04-21T10:19:13.211Z,40.60
2019-04-21T10:21:42.596Z,41.20
2019-04-21T10:24:12.545Z,41.60
2019-04-21T10:26:42.973Z,41.80
2019-04-21T10:29:17.930Z,41.70
2019-04-21T10:31:44.849Z,41.80
2019-04-21T10:34:14.490Z,40.90
2019-04-21T10:36:44.820Z,40.40
2019-04-21T10:39:15.605Z,42.10
2019-04-21T10:41:45.783Z,41.20
2019-04-21T10:44:15.201Z,42.00
2019-04-21T10:46:47.366Z,41.30
2019-04-21T10:49:16.875Z,41.60
2019-04-21T10:51:46.768Z,39.90
2019-04-21T10:54:17.918Z,40.60
2019-04-21T10:56:49.122Z,40.20
2019-04-21T10:59:18.665Z,40.90
2019-04-21T11:01:49.185Z,40.30
2019-04-21T11:04:27.785Z,40.50
2019-04-21T11:06:57.056Z,39.70
2019-04-21T11:09:26.420Z,39.70
2019-04-21T11:11:55.815Z,39.60
2019-04-21T11:14:27.223Z,39.80
2019-04-21T11:16:56.703Z,41.00
2019-04-21T11:19:27.035Z,39.80
2019-04-21T11:21:56.844Z,39.30
2019-04-21T11:24:27.142Z,39.60
2019-04-21T11:26:56.457Z,38.40
2019-04-21T11:29:26.379Z,38.10
2019-04-21T11:31:56.810Z,38.40
2019-04-21T11:34:27.291Z,39.20
2019-04-21T11:36:56.669Z,39.50
2019-04-21T11:39:37.536Z,38.40
2019-04-21T11:41:59.650Z,39.40
2019-04-21T11:44:29.123Z,39.30
2019-04-21T11:46:58.721Z,39.30
2019-04-21T11:49:31.098Z,39.60
2019-04-21T11:51:58.985Z,38.80
2019-04-21T11:54:28.821Z,38.50
2019-04-21T11:56:59.804Z,39.00
2019-04-21T11:59:29.971Z,40.30
2019-04-21T12:01:59.366Z,40.10
2019-04-21T12:04:29.549Z,39.20
2019-04-21T12:06:59.846Z,38.80
2019-04-21T12:09:33.345Z,39.20
2019-04-21T12:12:03.362Z,39.00
2019-04-21T12:14:34.099Z,37.90
2019-04-21T12:17:03.497Z,38.70
2019-04-21T12:19:32.770Z,39.00
2019-04-21T12:22:11.012Z,38.70
2019-04-21T12:24:36.249Z,39.60
2019-04-21T12:27:05.852Z,40.60
2019-04-21T12:29:36.141Z,41.60
2019-04-21T12:32:10.825Z,39.90
2019-04-21T12:34:41.739Z,40.90
2019-04-21T12:37:11.173Z,41.40
2019-04-21T12:39:40.919Z,41.10
2019-04-21T12:42:10.443Z,39.60
2019-04-21T12:44:41.252Z,42.00
2019-04-21T12:47:11.744Z,42.30
2019-04-21T12:49:41.492Z,39.60
2019-04-21T12:52:11.458Z,41.90
2019-04-21T12:54:41.810Z,41.60
2019-04-21T12:57:11.765Z,40.50
2019-04-21T12:59:42.548Z,39.60
2019-04-21T13:02:13.614Z,38.60
2019-04-21T13:04:43.954Z,40.30
2019-04-21T13:07:15.401Z,41.00
2019-04-21T13:09:46.247Z,39.50
2019-04-21T13:12:17.193Z,39.60
2019-04-21T13:14:47.477Z,40.80
2019-04-21T13:17:17.296Z,39.10
2019-04-21T13:19:47.302Z,39.10
2019-04-21T13:22:18.122Z,38.80
2019-04-21T13:24:47.809Z,38.20
2019-04-21T13:27:18.321Z,38.20
2019-04-21T13:29:48.289Z,38.00
2019-04-21T13:32:18.487Z,39.60
2019-04-21T13:34:47.905Z,40.20
2019-04-21T13:37:17.400Z,40.80
2019-04-21T13:40:18.286Z,39.20
2019-04-21T13:42:31.410Z,42.20
2019-04-21T13:44:57.832Z,40.00
2019-04-21T13:47:26.286Z,39.10
2019-04-21T13:49:57.848Z,39.70
2019-04-21T13:52:26.842Z,40.50
2019-04-21T13:54:56.161Z,39.30
2019-04-21T13:57:26.346Z,38.80
2019-04-21T13:59:57.103Z,40.60
2019-04-21T14:02:26.843Z,38.90
2019-04-21T14:04:56.110Z,39.30
2019-04-21T14:07:26.144Z,40.10
2019-04-21T14:10:00.786Z,39.00
2019-04-21T14:12:27.526Z,38.90
2019-04-21T14:14:57.075Z,39.00
2019-04-21T14:17:26.648Z,39.80
2019-04-21T14:19:57.242Z,38.80
2019-04-21T14:22:26.822Z,38.60
2019-04-21T14:24:56.365Z,38.60
2019-04-21T14:27:25.972Z,37.20
2019-04-21T14:29:55.586Z,37.30
2019-04-21T14:32:26.432Z,37.50
2019-04-21T14:34:56.634Z,38.90
2019-04-21T14:37:26.568Z,38.50
2019-04-21T14:40:03.992Z,40.10
2019-04-21T14:42:27.041Z,38.10
2019-04-21T14:44:56.851Z,38.20
2019-04-21T14:47:46.397Z,38.30
2019-04-21T14:50:24.437Z,38.60
2019-04-21T14:53:11.760Z,38.90
2019-04-21T14:55:43.466Z,39.20
2019-04-21T14:58:13.050Z,38.20
2019-04-21T15:00:53.005Z,38.30
2019-04-21T15:03:23.650Z,37.90
2019-04-21T15:05:53.493Z,38.80
2019-04-21T15:08:23.084Z,38.90
2019-04-21T15:10:52.796Z,41.00
2019-04-21T15:13:22.088Z,39.60
2019-04-21T15:15:52.197Z,39.20
2019-04-21T15:18:22.888Z,39.50
2019-04-21T15:20:53.136Z,38.90
2019-04-21T15:23:25.232Z,40.20
2019-04-21T15:25:54.292Z,39.60
2019-04-21T15:28:23.870Z,39.90
2019-04-21T15:30:54.169Z,39.60
2019-04-21T15:33:24.520Z,40.00
2019-04-21T15:35:55.280Z,41.50
2019-04-21T15:38:25.503Z,42.00
2019-04-21T15:40:58.054Z,40.40
2019-04-21T15:43:26.579Z,39.70
2019-04-21T15:45:57.098Z,41.90
2019-04-21T15:48:26.771Z,39.30
2019-04-21T15:50:56.775Z,40.00
2019-04-21T15:53:31.995Z,39.30
2019-04-21T15:56:02.924Z,38.70
2019-04-21T15:58:40.905Z,39.00
2019-04-21T16:01:14.806Z,39.50
2019-04-21T16:03:44.838Z,39.80
2019-04-21T16:06:14.429Z,39.90
2019-04-21T16:08:47.479Z,40.60
2019-04-21T16:11:15.763Z,41.30
2019-04-21T16:13:45.878Z,40.70
2019-04-21T16:16:16.617Z,40.80
2019-04-21T16:18:46.260Z,41.90
2019-04-21T16:21:15.976Z,40.10
2019-04-21T16:23:46.633Z,40.00
2019-04-21T16:26:17.011Z,40.10
2019-04-21T16:28:46.930Z,39.80
2019-04-21T16:31:16.443Z,39.60
2019-04-21T16:33:47.048Z,40.10
2019-04-21T16:36:17.116Z,40.60
2019-04-21T16:38:49.204Z,39.90
2019-04-21T16:41:20.306Z,39.60
2019-04-21T16:43:51.275Z,40.30
2019-04-21T16:46:21.114Z,39.70
2019-04-21T16:48:51.676Z,39.70
2019-04-21T16:51:22.263Z,39.60
2019-04-21T16:53:55.752Z,40.00
2019-04-21T16:56:35.871Z,40.60
2019-04-21T16:59:12.475Z,40.50
2019-04-21T17:01:42.732Z,41.60
2019-04-21T17:04:12.801Z,41.70
2019-04-21T17:06:42.926Z,43.70
2019-04-21T17:09:12.689Z,41.90
2019-04-21T17:11:44.162Z,41.60
2019-04-21T17:14:32.939Z,42.60
2019-04-21T17:17:14.185Z,44.50
2019-04-21T17:19:25.036Z,45.40
2019-04-21T17:21:47.501Z,46.10
2019-04-21T17:24:17.126Z,47.00
2019-04-21T17:26:47.786Z,47.60
2019-04-21T17:29:18.751Z,47.90
2019-04-21T17:31:49.700Z,48.10
2019-04-21T17:34:22.957Z,47.80
2019-04-21T17:36:50.964Z,47.90
2019-04-21T17:39:20.861Z,47.90
2019-04-21T17:42:05.331Z,47.70
2019-04-21T17:44:21.438Z,48.10
2019-04-21T17:46:56.295Z,48.40
2019-04-21T17:49:23.242Z,48.40
2019-04-21T17:52:11.738Z,48.70
2019-04-21T17:54:48.409Z,49.50
2019-04-21T17:57:36.928Z,50.20
2019-04-21T18:00:10.768Z,50.30
2019-04-21T18:02:46.063Z,51.00
2019-04-21T18:05:15.217Z,50.90
2019-04-21T18:07:46.733Z,51.30
2019-04-21T18:10:07.788Z,51.80
2019-04-21T18:12:36.473Z,51.80
2019-04-21T18:15:14.705Z,53.70
2019-04-21T18:17:24.905Z,54.10
2019-04-21T18:19:56.757Z,53.80
2019-04-21T18:22:46.908Z,52.50
2019-04-21T18:25:27.954Z,51.60
2019-04-21T18:27:48.288Z,51.10
2019-04-21T18:30:40.403Z,51.00
2019-04-21T18:33:15.057Z,51.00
2019-04-21T18:36:02.416Z,51.50
2019-04-21T18:39:04.088Z,51.60
2019-04-21T18:41:21.692Z,51.70
2019-04-21T18:44:30.309Z,52.50
2019-04-21T18:46:55.771Z,51.90
2019-04-21T18:49:19.532Z,53.00
2019-04-21T18:52:00.809Z,54.30
2019-04-21T18:54:44.441Z,54.90
2019-04-21T18:57:09.266Z,54.50
2019-04-21T18:59:37.615Z,54.90
2019-04-21T19:02:07.956Z,56.40
2019-04-21T19:04:35.198Z,56.90
2019-04-21T19:07:18.136Z,56.70
2019-04-21T19:10:08.224Z,57.80
2019-04-21T19:12:34.041Z,58.10
2019-04-21T19:14:54.915Z,58.10
2019-04-21T19:20:10.420Z,57.50
2019-04-21T19:22:34.459Z,58.40
2019-04-21T19:25:16.691Z,58.70
2019-04-21T19:27:35.514Z,58.60
2019-04-21T19:32:33.250Z,59.40
2019-04-21T19:34:52.580Z,59.70
2019-04-21T19:37:24.397Z,59.30
2019-04-21T19:40:03.292Z,59.20
2019-04-21T19:42:34.082Z,60.10
2019-04-21T19:45:11.809Z,60.50
2019-04-21T19:47:47.369Z,60.90
2019-04-21T19:50:10.831Z,61.20
2019-04-21T19:52:38.431Z,61.60
2019-04-21T19:54:58.672Z,62.00
2019-04-21T19:57:29.172Z,62.50
2019-04-21T20:00:03.191Z,62.90
2019-04-21T20:02:30.281Z,63.10
2019-04-21T20:05:05.994Z,63.00
2019-04-21T20:07:49.785Z,62.90
2019-04-21T20:10:25.675Z,62.30
2019-04-21T20:12:49.888Z,63.10
2019-04-21T20:15:30.258Z,63.10
2019-04-21T20:17:54.075Z,63.40
2019-04-21T20:20:11.239Z,62.00
2019-04-21T20:22:44.985Z,63.80
2019-04-21T20:25:16.133Z,64.00
2019-04-21T20:27:52.923Z,63.80
2019-04-21T20:30:33.030Z,63.20
2019-04-21T20:33:05.644Z,63.20
2019-04-21T20:35:48.545Z,62.80
2019-04-21T20:38:04.792Z,64.20
2019-04-21T20:40:30.816Z,64.60
2019-04-21T20:43:13.465Z,64.60
2019-04-21T20:46:00.351Z,65.30
2019-04-21T20:47:59.951Z,64.70
2019-04-21T20:50:37.627Z,65.20
2019-04-21T20:53:14.682Z,65.30
2019-04-21T20:55:37.877Z,65.10
2019-04-21T20:58:07.886Z,65.40
2019-04-21T21:00:56.138Z,65.30
2019-04-21T21:03:20.467Z,65.70
2019-04-21T21:05:46.085Z,65.50
2019-04-21T21:08:22.991Z,66.10
2019-04-21T21:10:51.170Z,66.30
2019-04-21T21:13:33.414Z,66.70
2019-04-21T21:16:04.131Z,66.90
2019-04-21T21:18:52.021Z,66.70
2019-04-21T21:21:00.306Z,66.60
2019-04-21T21:23:26.128Z,66.30
2019-04-21T21:26:07.056Z,66.80
2019-04-21T21:28:26.713Z,65.90
2019-04-21T21:31:04.166Z,66.50
2019-04-21T21:33:35.567Z,66.30
2019-04-21T21:36:06.580Z,66.10
2019-04-21T21:38:39.283Z,65.20
2019-04-21T21:41:01.241Z,65.30
2019-04-21T21:43:24.802Z,65.60
2019-04-21T21:45:56.087Z,64.40
2019-04-21T21:48:39.487Z,63.20
2019-04-21T21:51:05.809Z,63.10
2019-04-21T21:53:28.928Z,62.40
2019-04-21T21:55:58.600Z,61.80
2019-04-21T21:58:33.859Z,61.70
2019-04-21T22:01:02.978Z,61.10
2019-04-21T22:03:37.418Z,60.60
2019-04-21T22:06:07.831Z,60.90
2019-04-21T22:08:34.260Z,60.00
2019-04-21T22:11:05.303Z,60.00
2019-04-21T22:13:44.763Z,59.00
2019-04-21T22:16:10.685Z,58.70
2019-04-21T22:19:03.604Z,58.00
2019-04-21T22:21:18.791Z,57.40
2019-04-21T22:23:51.322Z,57.40
2019-04-21T22:26:11.435Z,57.20
2019-04-21T22:28:40.822Z,57.10
2019-04-21T22:31:15.428Z,56.90
2019-04-21T22:33:48.300Z,56.80
2019-04-21T22:36:26.477Z,56.80
2019-04-21T22:39:04.972Z,56.70
2019-04-21T22:41:28.244Z,56.60
2019-04-21T22:43:49.954Z,56.70
2019-04-21T22:46:18.198Z,56.80
2019-04-21T22:48:54.619Z,56.90
2019-04-21T22:51:23.807Z,57.00
2019-04-21T22:53:53.431Z,57.00
2019-04-21T22:56:26.826Z,57.10
2019-04-21T22:58:53.102Z,57.10
2019-04-21T23:01:30.186Z,57.10
2019-04-21T23:04:00.447Z,57.20
2019-04-21T23:06:28.691Z,57.30
2019-04-21T23:08:56.962Z,57.30
2019-04-21T23:11:29.302Z,57.40
2019-04-21T23:14:03.999Z,57.60
2019-04-21T23:16:33.741Z,57.50
2019-04-21T23:19:22.625Z,57.60
2019-04-21T23:21:55.306Z,57.70
2019-04-21T23:24:28.248Z,57.80
2019-04-21T23:26:49.076Z,57.90
2019-04-21T23:29:25.832Z,58.00
2019-04-21T23:31:55.072Z,58.10
2019-04-21T23:34:10.862Z,58.00
2019-04-21T23:36:48.192Z,58.30
2019-04-21T23:39:17.070Z,58.40
2019-04-21T23:41:45.943Z,58.60
2019-04-21T23:44:14.172Z,58.60
2019-04-21T23:46:44.476Z,58.40
2019-04-21T23:49:27.181Z,58.50
2019-04-21T23:51:50.890Z,58.40
2019-04-21T23:54:15.705Z,58.70
2019-04-21T23:56:47.582Z,58.80
2019-04-21T23:59:17.914Z,58.80
